createdAt,value
2022-08-07T00:02:36.575Z,26.12
2022-08-07T00:05:06.238Z,26.12
2022-08-07T00:07:40.126Z,26.09
2022-08-07T00:10:26.246Z,26.07
2022-08-07T00:13:00.195Z,26.03
2022-08-07T00:15:37.877Z,26.01
2022-08-07T00:18:18.742Z,25.99
2022-08-07T00:20:50.425Z,25.97
2022-08-07T00:23:21.229Z,25.94
2022-08-07T00:25:59.004Z,25.92
2022-08-07T00:28:33.928Z,25.91
2022-08-07T00:31:12.816Z,25.89
2022-08-07T00:33:47.478Z,25.85
2022-08-07T00:36:17.963Z,25.84
2022-08-07T00:38:46.794Z,25.82
2022-08-07T00:41:27.934Z,25.81
2022-08-07T00:44:02.096Z,25.78
2022-08-07T00:46:32.897Z,25.76
2022-08-07T00:49:03.461Z,25.73
2022-08-07T00:51:56.711Z,25.71
2022-08-07T00:54:23.441Z,25.68
2022-08-07T00:56:52.625Z,25.67
2022-08-07T00:59:35.903Z,25.64
2022-08-07T01:02:09.006Z,25.63
2022-08-07T01:04:43.936Z,25.61
2022-08-07T01:07:14.747Z,25.58
2022-08-07T01:10:06.372Z,25.56
2022-08-07T01:12:32.638Z,25.53
2022-08-07T01:15:04.426Z,25.52
2022-08-07T01:17:34.631Z,25.49
2022-08-07T01:20:10.117Z,25.48
2022-08-07T01:23:00.558Z,25.46
2022-08-07T01:25:53.575Z,25.43
2022-08-07T01:28:25.889Z,25.41
2022-08-07T01:30:58.600Z,25.39
2022-08-07T01:33:30.059Z,25.38
2022-08-07T01:36:17.538Z,25.35
2022-08-07T01:38:49.388Z,25.33
2022-08-07T01:41:26.052Z,25.30
2022-08-07T01:43:57.990Z,25.27
2022-08-07T01:46:27.875Z,25.27
2022-08-07T01:49:00.104Z,25.24
2022-08-07T01:52:01.874Z,25.22
2022-08-07T01:54:33.354Z,25.19
2022-08-07T01:57:24.310Z,25.16
2022-08-07T01:59:58.791Z,25.16
2022-08-07T02:03:18.174Z,25.14
2022-08-07T02:05:48.350Z,25.10
2022-08-07T02:08:27.790Z,25.08
2022-08-07T02:10:59.727Z,25.08
2022-08-07T02:13:56.334Z,25.07
2022-08-07T02:16:28.839Z,25.06
2022-08-07T02:20:03.514Z,25.04
2022-08-07T02:21:58.562Z,25.00
2022-08-07T02:24:30.165Z,24.99
2022-08-07T02:27:02.610Z,24.96
2022-08-07T02:29:43.397Z,24.94
2022-08-07T02:32:18.810Z,24.91
2022-08-07T02:34:53.528Z,24.89
2022-08-07T02:37:27.499Z,24.88
2022-08-07T02:40:29.885Z,24.85
2022-08-07T02:43:00.272Z,24.82
2022-08-07T02:45:59.177Z,24.81
2022-08-07T02:48:20.840Z,24.76
2022-08-07T02:50:54.070Z,24.75
2022-08-07T02:53:29.962Z,24.74
2022-08-07T02:56:03.153Z,24.72
2022-08-07T02:58:39.845Z,24.70
2022-08-07T03:01:18.998Z,24.70
2022-08-07T03:04:07.733Z,24.68
2022-08-07T03:06:44.713Z,24.66
2022-08-07T03:09:43.569Z,24.65
2022-08-07T03:12:21.899Z,24.61
2022-08-07T03:14:57.019Z,24.58
2022-08-07T03:17:32.046Z,24.55
2022-08-07T03:20:10.034Z,24.54
2022-08-07T03:22:43.924Z,24.52
2022-08-07T03:25:21.123Z,24.49
2022-08-07T03:28:09.212Z,24.47
2022-08-07T03:30:42.513Z,24.47
2022-08-07T03:33:11.884Z,24.44
2022-08-07T03:35:49.950Z,24.44
2022-08-07T03:38:29.424Z,24.41
2022-08-07T03:41:01.487Z,24.38
2022-08-07T03:43:36.078Z,24.37
2022-08-07T03:46:10.417Z,24.36
2022-08-07T03:49:02.188Z,24.32
2022-08-07T03:51:47.640Z,24.30
2022-08-07T03:54:36.365Z,24.28
2022-08-07T03:57:10.476Z,24.26
2022-08-07T04:00:01.574Z,24.24
2022-08-07T04:02:47.094Z,24.22
2022-08-07T04:05:39.564Z,24.22
2022-08-07T04:08:16.000Z,24.20
2022-08-07T04:10:53.942Z,24.20
2022-08-07T04:14:10.055Z,24.17
2022-08-07T04:16:30.855Z,24.14
2022-08-07T04:19:03.886Z,24.14
2022-08-07T04:21:59.404Z,24.12
2022-08-07T04:24:39.052Z,24.11
2022-08-07T04:27:20.743Z,24.08
2022-08-07T04:30:01.181Z,24.06
2022-08-07T04:33:01.118Z,24.03
2022-08-07T04:35:39.328Z,24.02
2022-08-07T04:38:14.864Z,24.00
2022-08-07T04:40:52.625Z,23.98
2022-08-07T04:44:11.934Z,23.96
2022-08-07T04:46:42.786Z,23.93
2022-08-07T04:49:39.327Z,23.90
2022-08-07T04:52:27.461Z,23.85
2022-08-07T04:55:15.309Z,23.87
2022-08-07T04:58:11.959Z,23.84
2022-08-07T05:00:53.015Z,23.83
2022-08-07T05:04:00.317Z,23.81
2022-08-07T05:06:24.138Z,23.80
2022-08-07T05:09:04.439Z,23.79
2022-08-07T05:11:56.914Z,23.78
2022-08-07T05:14:52.167Z,23.79
2022-08-07T05:17:51.548Z,23.78
2022-08-07T05:20:25.037Z,23.78
2022-08-07T05:23:03.039Z,23.78
2022-08-07T05:26:10.435Z,23.79
2022-08-07T05:28:26.697Z,23.81
2022-08-07T05:30:59.819Z,23.81
2022-08-07T05:33:35.596Z,23.82
2022-08-07T05:36:12.237Z,23.82
2022-08-07T05:39:00.058Z,23.82
2022-08-07T05:42:00.750Z,23.81
2022-08-07T05:44:29.379Z,23.81
2022-08-07T05:47:01.100Z,23.82
2022-08-07T05:49:37.196Z,23.84
2022-08-07T05:52:11.476Z,23.84
2022-08-07T05:54:53.725Z,23.87
2022-08-07T05:57:30.259Z,23.88
2022-08-07T06:00:05.952Z,23.88
2022-08-07T06:02:52.619Z,23.89
2022-08-07T06:05:28.303Z,23.90
2022-08-07T06:08:14.916Z,23.91
2022-08-07T06:10:54.939Z,23.92
2022-08-07T06:14:11.568Z,23.95
2022-08-07T06:16:17.666Z,23.91
2022-08-07T06:18:51.462Z,23.93
2022-08-07T06:22:16.074Z,23.93
2022-08-07T06:24:45.612Z,23.94
2022-08-07T06:27:04.159Z,23.96
2022-08-07T06:29:38.763Z,23.98
2022-08-07T06:32:09.334Z,23.99
2022-08-07T06:34:45.356Z,24.00
2022-08-07T06:37:27.208Z,24.02
2022-08-07T06:40:17.254Z,24.03
2022-08-07T06:42:54.511Z,24.04
2022-08-07T06:45:47.644Z,24.05
2022-08-07T06:48:23.143Z,24.06
2022-08-07T06:51:07.923Z,24.10
2022-08-07T06:55:29.609Z,24.13
2022-08-07T06:56:48.584Z,24.16
2022-08-07T07:00:13.861Z,24.17
2022-08-07T07:02:48.132Z,24.14
2022-08-07T07:05:13.896Z,24.11
2022-08-07T07:08:06.934Z,24.06
2022-08-07T07:10:38.693Z,24.08
2022-08-07T07:13:56.373Z,24.12
2022-08-07T07:16:18.021Z,24.14
2022-08-07T07:18:55.884Z,24.15
2022-08-07T07:22:04.257Z,24.16
2022-08-07T07:24:20.440Z,24.15
2022-08-07T07:26:52.805Z,24.16
2022-08-07T07:29:39.792Z,24.17
2022-08-07T07:32:16.653Z,24.19
2022-08-07T07:34:50.924Z,24.21
2022-08-07T07:37:21.839Z,24.23
2022-08-07T07:40:16.922Z,24.26
2022-08-07T07:42:53.774Z,24.28
2022-08-07T07:46:38.220Z,24.33
2022-08-07T07:48:35.400Z,24.37
2022-08-07T07:51:08.536Z,24.42
2022-08-07T07:53:51.661Z,24.50
2022-08-07T07:56:30.230Z,24.55
2022-08-07T07:59:02.062Z,24.58
2022-08-07T08:02:02.622Z,24.65
2022-08-07T08:04:25.675Z,24.69
2022-08-07T08:07:03.460Z,24.74
2022-08-07T08:09:52.187Z,24.82
2022-08-07T08:12:52.341Z,24.89
2022-08-07T08:15:16.301Z,24.93
2022-08-07T08:17:59.683Z,24.98
2022-08-07T08:20:50.468Z,25.04
2022-08-07T08:23:38.624Z,25.10
2022-08-07T08:26:23.417Z,25.15
2022-08-07T08:28:57.271Z,25.21
2022-08-07T08:31:58.864Z,25.26
2022-08-07T08:34:35.424Z,25.33
2022-08-07T08:37:09.877Z,25.44
2022-08-07T08:40:04.163Z,25.55
2022-08-07T08:42:43.934Z,25.61
2022-08-07T08:45:41.570Z,25.70
2022-08-07T08:48:32.523Z,25.77
2022-08-07T08:51:14.499Z,25.85
2022-08-07T08:54:06.187Z,25.93
2022-08-07T08:56:48.558Z,26.02
2022-08-07T08:59:27.777Z,26.10
2022-08-07T09:02:08.865Z,26.14
2022-08-07T09:04:47.043Z,26.18
2022-08-07T09:07:34.143Z,26.25
2022-08-07T09:10:22.588Z,26.33
2022-08-07T09:13:03.601Z,26.42
2022-08-07T09:16:21.760Z,26.49
2022-08-07T09:19:52.180Z,26.53
2022-08-07T09:24:31.525Z,26.57
2022-08-07T09:25:18.331Z,26.64
2022-08-07T09:28:03.968Z,26.72
2022-08-07T09:30:54.526Z,26.73
2022-08-07T09:33:57.538Z,26.79
2022-08-07T09:36:37.262Z,26.87
2022-08-07T09:39:54.696Z,26.95
2022-08-07T09:42:40.008Z,27.01
2022-08-07T09:47:24.083Z,27.10
2022-08-07T09:49:02.265Z,27.20
2022-08-07T09:52:16.021Z,27.29
2022-08-07T09:54:42.329Z,27.35
2022-08-07T09:57:49.834Z,27.41
2022-08-07T10:00:31.882Z,27.46
2022-08-07T10:04:05.291Z,27.49
2022-08-07T10:07:24.271Z,27.52
2022-08-07T10:10:21.362Z,27.60
2022-08-07T10:13:55.623Z,27.69
2022-08-07T10:16:45.154Z,27.76
2022-08-07T10:19:45.370Z,27.78
2022-08-07T10:22:51.070Z,27.76
2022-08-07T10:25:45.379Z,27.83
2022-08-07T10:28:56.258Z,27.92
2022-08-07T10:31:53.509Z,28.00
2022-08-07T10:34:45.257Z,28.09
2022-08-07T10:37:48.788Z,28.16
2022-08-07T10:40:35.879Z,28.18
2022-08-07T10:43:15.637Z,28.28
2022-08-07T10:45:58.689Z,28.35
2022-08-07T10:49:07.455Z,28.37
2022-08-07T10:52:01.837Z,28.40
2022-08-07T10:54:53.164Z,28.41
2022-08-07T10:57:41.854Z,28.43
2022-08-07T11:00:36.231Z,28.49
2022-08-07T11:03:13.419Z,28.58
2022-08-07T11:06:18.288Z,28.68
2022-08-07T11:10:07.077Z,28.80
2022-08-07T11:12:31.523Z,28.92
2022-08-07T11:15:14.449Z,29.03
2022-08-07T11:17:53.939Z,29.11
2022-08-07T11:20:41.934Z,29.12
2022-08-07T11:23:30.552Z,29.12
2022-08-07T11:26:25.456Z,29.12
2022-08-07T11:29:40.842Z,29.12
2022-08-07T11:32:26.779Z,29.11
2022-08-07T11:35:09.629Z,29.13
2022-08-07T11:38:17.609Z,29.18
2022-08-07T11:41:03.269Z,29.26
2022-08-07T11:44:11.823Z,29.30
2022-08-07T11:46:57.766Z,29.34
2022-08-07T11:50:18.696Z,29.36
2022-08-07T11:52:59.253Z,29.34
2022-08-07T11:56:09.527Z,29.36
2022-08-07T12:00:08.138Z,29.41
2022-08-07T12:02:20.516Z,29.46
2022-08-07T12:05:28.689Z,29.49
2022-08-07T12:08:26.126Z,29.53
2022-08-07T12:11:20.347Z,29.56
2022-08-07T12:14:03.946Z,29.57
2022-08-07T12:16:44.052Z,29.62
2022-08-07T12:19:25.477Z,29.65
2022-08-07T12:22:39.355Z,29.70
2022-08-07T12:26:03.067Z,29.75
2022-08-07T12:28:32.424Z,29.80
2022-08-07T12:31:09.359Z,29.85
2022-08-07T12:34:01.356Z,29.89
2022-08-07T12:36:35.343Z,29.97
2022-08-07T12:39:09.455Z,30.04
2022-08-07T12:41:59.173Z,30.10
2022-08-07T12:44:39.846Z,30.15
2022-08-07T12:47:32.862Z,30.16
2022-08-07T12:50:38.929Z,30.18
2022-08-07T12:54:02.776Z,30.26
2022-08-07T12:56:36.545Z,30.37
2022-08-07T12:59:20.665Z,30.47
2022-08-07T13:02:17.427Z,30.49
2022-08-07T13:05:14.731Z,30.46
2022-08-07T13:08:34.401Z,30.47
2022-08-07T13:12:03.073Z,30.53
2022-08-07T13:14:55.174Z,30.61
2022-08-07T13:18:02.605Z,30.66
2022-08-07T13:20:56.563Z,30.71
2022-08-07T13:24:02.080Z,30.74
2022-08-07T13:26:38.318Z,30.76
2022-08-07T13:29:23.843Z,30.83
2022-08-07T13:32:32.288Z,30.90
2022-08-07T13:36:00.185Z,30.90
2022-08-07T13:38:37.987Z,30.88
2022-08-07T13:41:47.549Z,30.89
2022-08-07T13:44:41.434Z,30.89
2022-08-07T13:47:25.217Z,30.89
2022-08-07T13:50:33.801Z,30.92
2022-08-07T13:53:09.931Z,30.97
2022-08-07T13:55:56.873Z,31.00
2022-08-07T13:59:00.943Z,31.05
2022-08-07T14:01:51.551Z,31.09
2022-08-07T14:04:49.677Z,31.11
2022-08-07T14:07:33.551Z,31.13
2022-08-07T14:10:27.984Z,31.13
2022-08-07T14:13:04.332Z,31.15
2022-08-07T14:15:44.114Z,31.17
2022-08-07T14:18:28.269Z,31.18
2022-08-07T14:21:20.898Z,31.22
2022-08-07T14:24:10.694Z,31.24
2022-08-07T14:26:56.219Z,31.27
2022-08-07T14:30:07.762Z,31.31
2022-08-07T14:38:50.574Z,31.47
2022-08-07T14:41:34.119Z,31.43
2022-08-07T14:44:25.300Z,31.44
2022-08-07T14:47:19.020Z,31.44
2022-08-07T14:53:09.762Z,31.40
2022-08-07T14:55:56.214Z,31.44
2022-08-07T14:58:35.308Z,31.45
2022-08-07T15:01:21.873Z,31.47
2022-08-07T15:04:07.944Z,31.48
2022-08-07T15:06:39.777Z,31.49
2022-08-07T15:09:59.551Z,31.52
2022-08-07T15:12:10.637Z,31.55
2022-08-07T15:15:07.364Z,31.55
2022-08-07T15:17:54.610Z,31.50
2022-08-07T15:20:35.751Z,31.45
2022-08-07T15:27:16.748Z,31.39
2022-08-07T15:30:22.435Z,31.33
2022-08-07T15:33:56.501Z,31.37
2022-08-07T15:37:04.266Z,31.40
2022-08-07T15:43:55.626Z,31.27
2022-08-07T15:46:51.970Z,31.26
2022-08-07T15:50:05.885Z,31.23
2022-08-07T15:52:51.626Z,31.22
2022-08-07T15:56:02.588Z,31.19
2022-08-07T15:58:37.008Z,31.18
2022-08-07T16:01:20.928Z,31.16
2022-08-07T16:04:56.430Z,31.13
2022-08-07T16:08:32.161Z,31.09
2022-08-07T16:10:37.620Z,31.06
2022-08-07T16:14:02.748Z,31.05
2022-08-07T16:17:15.334Z,31.00
2022-08-07T16:20:33.899Z,30.94
2022-08-07T16:23:54.815Z,30.91
2022-08-07T16:26:58.817Z,30.92
2022-08-07T16:30:30.548Z,30.89
2022-08-07T16:34:02.105Z,30.88
2022-08-07T16:36:32.152Z,30.84
2022-08-07T16:39:48.871Z,30.80
2022-08-07T16:43:02.579Z,30.77
2022-08-07T16:46:47.405Z,30.75
2022-08-07T16:50:28.842Z,30.71
2022-08-07T16:54:01.797Z,30.67
2022-08-07T16:56:19.975Z,30.65
2022-08-07T16:59:25.073Z,30.62
2022-08-07T17:02:51.120Z,30.61
2022-08-07T17:06:19.728Z,30.61
2022-08-07T17:09:08.725Z,30.60
2022-08-07T17:12:35.802Z,30.55
2022-08-07T17:15:23.457Z,30.52
2022-08-07T17:18:30.725Z,30.51
2022-08-07T17:21:23.058Z,30.50
2022-08-07T17:24:42.536Z,30.48
2022-08-07T17:27:22.434Z,30.48
2022-08-07T17:30:26.803Z,30.46
2022-08-07T17:34:08.892Z,30.45
2022-08-07T17:36:20.270Z,30.43
2022-08-07T17:39:10.510Z,30.45
2022-08-07T17:42:03.934Z,30.47
2022-08-07T17:44:50.081Z,30.48
2022-08-07T17:47:42.068Z,30.48
2022-08-07T17:50:20.606Z,30.46
2022-08-07T17:53:05.987Z,30.44
2022-08-07T17:56:00.849Z,30.43
2022-08-07T17:58:46.538Z,30.38
2022-08-07T18:01:22.897Z,30.38
2022-08-07T18:04:21.776Z,30.35
2022-08-07T18:07:20.200Z,30.36
2022-08-07T18:10:05.985Z,30.36
2022-08-07T18:12:54.937Z,30.35
2022-08-07T18:15:33.078Z,30.32
2022-08-07T18:18:47.270Z,30.28
2022-08-07T18:21:41.365Z,30.22
2022-08-07T18:24:07.010Z,30.18
2022-08-07T18:27:38.402Z,30.14
2022-08-07T18:30:48.330Z,30.12
2022-08-07T18:34:39.380Z,30.03
2022-08-07T18:38:58.251Z,30.03
2022-08-07T18:41:08.343Z,30.00
2022-08-07T18:44:08.439Z,29.97
2022-08-07T18:52:37.841Z,29.86
2022-08-07T18:55:40.835Z,29.84
2022-08-07T18:58:54.629Z,29.81
2022-08-07T19:02:36.366Z,29.81
2022-08-07T19:09:57.400Z,29.72
2022-08-07T19:12:18.058Z,29.71
2022-08-07T19:16:02.208Z,29.68
2022-08-07T19:18:34.586Z,29.66
2022-08-07T19:21:46.644Z,29.68
2022-08-07T19:24:30.580Z,29.65
2022-08-07T19:28:30.774Z,29.61
2022-08-07T19:31:06.451Z,29.58
2022-08-07T19:32:52.387Z,29.55
2022-08-07T19:35:33.235Z,29.50
2022-08-07T19:38:16.054Z,29.49
2022-08-07T19:40:51.485Z,29.46
2022-08-07T19:43:49.060Z,29.47
2022-08-07T19:46:17.757Z,29.45
2022-08-07T19:48:53.658Z,29.44
2022-08-07T19:51:51.129Z,29.44
2022-08-07T19:54:35.554Z,29.40
2022-08-07T19:58:01.300Z,29.36
2022-08-07T20:00:08.797Z,29.34
2022-08-07T20:02:52.179Z,29.33
2022-08-07T20:05:28.627Z,29.31
2022-08-07T20:08:02.466Z,29.29
2022-08-07T20:10:54.611Z,29.27
2022-08-07T20:13:35.551Z,29.25
2022-08-07T20:16:07.462Z,29.25
2022-08-07T20:18:47.356Z,29.23
2022-08-07T20:21:21.729Z,29.20
2022-08-07T20:24:00.392Z,29.21
2022-08-07T20:26:45.090Z,29.18
2022-08-07T20:29:48.644Z,29.14
2022-08-07T20:32:22.799Z,29.12
2022-08-07T20:34:58.107Z,29.06
2022-08-07T20:37:46.857Z,29.04
2022-08-07T20:40:32.036Z,28.99
2022-08-07T20:43:14.469Z,28.98
2022-08-07T20:46:27.217Z,28.98
2022-08-07T20:49:54.037Z,28.96
2022-08-07T20:51:35.958Z,28.93
2022-08-07T20:54:15.346Z,28.92
2022-08-07T20:57:04.990Z,28.91
2022-08-07T21:00:08.251Z,28.91
2022-08-07T21:02:54.547Z,28.88
2022-08-07T21:05:50.551Z,28.86
2022-08-07T21:08:36.927Z,28.84
2022-08-07T21:11:12.257Z,28.82
2022-08-07T21:14:16.925Z,28.82
2022-08-07T21:16:57.008Z,28.80
2022-08-07T21:19:51.016Z,28.78
2022-08-07T21:22:33.265Z,28.75
2022-08-07T21:25:13.478Z,28.71
2022-08-07T21:28:08.855Z,28.69
2022-08-07T21:30:51.089Z,28.68
2022-08-07T21:33:24.369Z,28.66
2022-08-07T21:36:30.814Z,28.65
2022-08-07T21:39:46.415Z,28.61
2022-08-07T22:59:45.227Z,27.80
2022-08-07T23:02:36.359Z,27.85
2022-08-07T23:06:07.396Z,27.86
2022-08-07T23:09:12.880Z,27.88
2022-08-07T23:12:03.166Z,27.90
2022-08-07T23:14:44.469Z,27.93
2022-08-07T23:18:04.933Z,27.94
2022-08-07T23:21:06.584Z,27.90
2022-08-07T23:24:22.884Z,27.91
2022-08-07T23:27:10.891Z,27.92
2022-08-07T23:30:38.709Z,27.90
2022-08-07T23:34:36.602Z,27.90
2022-08-07T23:36:17.356Z,27.89
2022-08-07T23:39:08.598Z,27.86
2022-08-07T23:42:01.789Z,27.85
2022-08-07T23:45:15.020Z,27.81
2022-08-07T23:48:35.298Z,27.78
2022-08-07T23:52:56.996Z,27.79
2022-08-07T23:54:11.539Z,27.76
2022-08-07T23:56:53.458Z,27.76
